Menemsha, Massachusetts
Current Conditions -  °F | °C
As of 9:53 AM on Wednesday 22 Oct 2014 (Local Time) from KMVY Reporting Station
Haze Haze  
Wind Chill: 58°   Ceiling: 600
Heat Index: 58°   Visibility: 6mi
Dew Point: 57°   Wind: 16mph
Humidity: 97%   Direction: 30°NNE
Pressure: 29.9"   Gusts: 22mph
Location:  41.35°N, 70.76°W
Report Text: KMVY 221353Z 03014G19KT 6SM BR OVC006 14/14 A2990 RMK AO2 RAB32E35 CIG 005V009 SLP124 P0000 T01440139
Loading
Personal Weather Stations






























Interactive Weather Map
Tropical Storm Tracking
New forecast layout! Learn more

10-Day Weather Forecast

Advertisements
Track Severe Weather on mobile